sensor_id;sensor_type;location;lat;lon;timestamp;pressure;altitude;pressure_sealevel;temperature;humidity
18813;BME280;9534;51.140;6.296;2023-02-12T00:01:01;102865.63;;;7.51;100.00
18813;BME280;9534;51.140;6.296;2023-02-12T00:05:05;102860.25;;;7.31;100.00
18813;BME280;9534;51.140;6.296;2023-02-12T00:09:08;102859.66;;;7.36;100.00
18813;BME280;9534;51.140;6.296;2023-02-12T00:13:13;102864.44;;;7.44;100.00
18813;BME280;9534;51.140;6.296;2023-02-12T00:17:16;102861.91;;;7.52;100.00
18813;BME280;9534;51.140;6.296;2023-02-12T00:21:20;102872.75;;;7.42;100.00
18813;BME280;9534;51.140;6.296;2023-02-12T00:25:23;102872.63;;;7.44;100.00
18813;BME280;9534;51.140;6.296;2023-02-12T00:29:27;102874.34;;;7.45;100.00
18813;BME280;9534;51.140;6.296;2023-02-12T00:33:30;102871.63;;;7.45;100.00
18813;BME280;9534;51.140;6.296;2023-02-12T00:37:33;102863.75;;;7.51;100.00
18813;BME280;9534;51.140;6.296;2023-02-12T00:41:36;102872.81;;;7.52;100.00
18813;BME280;9534;51.140;6.296;2023-02-12T00:45:41;102863.38;;;7.56;100.00
18813;BME280;9534;51.140;6.296;2023-02-12T00:49:44;102865.94;;;7.57;100.00
18813;BME280;9534;51.140;6.296;2023-02-12T00:53:47;102873.72;;;7.62;100.00
18813;BME280;9534;51.140;6.296;2023-02-12T00:57:50;102864.44;;;7.44;100.00
18813;BME280;9534;51.140;6.296;2023-02-12T01:01:55;102859.53;;;7.38;100.00
18813;BME280;9534;51.140;6.296;2023-02-12T01:05:58;102855.81;;;7.39;100.00
18813;BME280;9534;51.140;6.296;2023-02-12T01:10:01;102866.72;;;7.39;100.00
18813;BME280;9534;51.140;6.296;2023-02-12T01:14:06;102863.72;;;7.42;100.00
18813;BME280;9534;51.140;6.296;2023-02-12T01:18:10;102854.09;;;7.38;100.00
18813;BME280;9534;51.140;6.296;2023-02-12T01:22:13;102854.44;;;7.24;100.00
18813;BME280;9534;51.140;6.296;2023-02-12T01:26:18;102853.81;;;7.41;100.00
18813;BME280;9534;51.140;6.296;2023-02-12T01:30:22;102850.69;;;7.45;100.00
18813;BME280;9534;51.140;6.296;2023-02-12T01:34:26;102846.97;;;7.46;100.00
18813;BME280;9534;51.140;6.296;2023-02-12T01:38:30;102851.81;;;7.43;100.00
18813;BME280;9534;51.140;6.296;2023-02-12T01:42:33;102846.09;;;7.46;100.00
18813;BME280;9534;51.140;6.296;2023-02-12T01:46:37;102844.84;;;7.50;100.00
18813;BME280;9534;51.140;6.296;2023-02-12T01:50:43;102842.91;;;7.32;100.00
18813;BME280;9534;51.140;6.296;2023-02-12T01:54:48;102843.38;;;7.16;100.00
18813;BME280;9534;51.140;6.296;2023-02-12T01:58:53;102834.84;;;7.30;100.00
18813;BME280;9534;51.140;6.296;2023-02-12T02:02:59;102836.88;;;7.37;100.00
18813;BME280;9534;51.140;6.296;2023-02-12T02:07:05;102834.19;;;7.17;100.00
18813;BME280;9534;51.140;6.296;2023-02-12T02:11:10;102838.56;;;7.29;100.00
18813;BME280;9534;51.140;6.296;2023-02-12T02:15:29;102838.28;;;7.32;100.00
18813;BME280;9534;51.140;6.296;2023-02-12T02:19:49;102825.69;;;7.31;100.00
18813;BME280;9534;51.140;6.296;2023-02-12T02:24:13;102832.53;;;7.26;100.00
18813;BME280;9534;51.140;6.296;2023-02-12T02:28:44;102827.94;;;7.26;100.00
18813;BME280;9534;51.140;6.296;2023-02-12T02:32:58;102830.81;;;7.25;100.00
18813;BME280;9534;51.140;6.296;2023-02-12T02:37:13;102832.75;;;7.13;100.00
18813;BME280;9534;51.140;6.296;2023-02-12T02:41:23;102832.22;;;7.19;100.00
18813;BME280;9534;51.140;6.296;2023-02-12T02:45:33;102831.91;;;7.13;100.00
18813;BME280;9534;51.140;6.296;2023-02-12T02:49:44;102832.16;;;7.10;100.00
18813;BME280;9534;51.140;6.296;2023-02-12T02:53:52;102832.44;;;7.07;100.00
18813;BME280;9534;51.140;6.296;2023-02-12T02:58:03;102824.00;;;7.10;100.00
18813;BME280;9534;51.140;6.296;2023-02-12T03:02:11;102825.53;;;7.03;100.00
18813;BME280;9534;51.140;6.296;2023-02-12T03:06:23;102833.88;;;7.11;100.00
18813;BME280;9534;51.140;6.296;2023-02-12T03:10:31;102824.03;;;6.89;100.00
18813;BME280;9534;51.140;6.296;2023-02-12T03:14:37;102820.28;;;6.90;100.00
18813;BME280;9534;51.140;6.296;2023-02-12T03:18:48;102821.84;;;6.83;100.00
18813;BME280;9534;51.140;6.296;2023-02-12T03:22:57;102829.91;;;6.94;100.00
18813;BME280;9534;51.140;6.296;2023-02-12T03:27:06;102821.19;;;7.00;100.00
18813;BME280;9534;51.140;6.296;2023-02-12T03:31:17;102815.88;;;6.89;100.00
18813;BME280;9534;51.140;6.296;2023-02-12T03:35:26;102812.84;;;6.92;100.00
18813;BME280;9534;51.140;6.296;2023-02-12T03:39:41;102815.13;;;6.87;100.00
18813;BME280;9534;51.140;6.296;2023-02-12T03:43:50;102809.84;;;6.95;100.00
18813;BME280;9534;51.140;6.296;2023-02-12T03:48:00;102818.94;;;7.05;100.00
18813;BME280;9534;51.140;6.296;2023-02-12T03:52:04;102822.38;;;7.07;100.00
18813;BME280;9534;51.140;6.296;2023-02-12T03:56:12;102827.25;;;7.04;100.00
18813;BME280;9534;51.140;6.296;2023-02-12T04:00:20;102814.56;;;6.93;100.00
18813;BME280;9534;51.140;6.296;2023-02-12T04:04:25;102820.00;;;6.93;100.00
18813;BME280;9534;51.140;6.296;2023-02-12T04:08:29;102826.38;;;7.03;100.00
18813;BME280;9534;51.140;6.296;2023-02-12T04:12:39;102835.44;;;6.83;100.00
18813;BME280;9534;51.140;6.296;2023-02-12T04:16:44;102827.59;;;6.90;100.00
18813;BME280;9534;51.140;6.296;2023-02-12T04:20:56;102831.34;;;6.98;100.00
18813;BME280;9534;51.140;6.296;2023-02-12T04:25:07;102836.06;;;6.96;100.00
18813;BME280;9534;51.140;6.296;2023-02-12T04:29:25;102840.13;;;7.02;100.00
18813;BME280;9534;51.140;6.296;2023-02-12T04:33:37;102846.69;;;6.99;100.00
18813;BME280;9534;51.140;6.296;2023-02-12T04:37:44;102857.00;;;6.96;100.00
18813;BME280;9534;51.140;6.296;2023-02-12T04:41:48;102851.78;;;6.83;100.00
18813;BME280;9534;51.140;6.296;2023-02-12T04:45:52;102853.41;;;6.95;100.00
18813;BME280;9534;51.140;6.296;2023-02-12T04:49:56;102847.97;;;6.95;100.00
18813;BME280;9534;51.140;6.296;2023-02-12T04:53:59;102859.84;;;6.94;100.00
18813;BME280;9534;51.140;6.296;2023-02-12T04:58:02;102859.84;;;6.94;100.00
18813;BME280;9534;51.140;6.296;2023-02-12T05:02:07;102866.13;;;6.85;100.00
18813;BME280;9534;51.140;6.296;2023-02-12T05:06:10;102856.94;;;6.86;100.00
18813;BME280;9534;51.140;6.296;2023-02-12T05:10:13;102848.97;;;6.94;100.00
18813;BME280;9534;51.140;6.296;2023-02-12T05:14:16;102856.47;;;7.02;100.00
18813;BME280;9534;51.140;6.296;2023-02-12T05:18:20;102853.13;;;6.98;100.00
18813;BME280;9534;51.140;6.296;2023-02-12T05:22:23;102856.94;;;6.86;100.00
18813;BME280;9534;51.140;6.296;2023-02-12T05:26:26;102854.50;;;6.83;100.00
18813;BME280;9534;51.140;6.296;2023-02-12T05:30:30;102860.66;;;6.85;100.00
18813;BME280;9534;51.140;6.296;2023-02-12T05:34:34;102865.84;;;6.88;100.00
18813;BME280;9534;51.140;6.296;2023-02-12T05:38:38;102865.22;;;6.85;100.00
18813;BME280;9534;51.140;6.296;2023-02-12T05:42:41;102881.56;;;6.85;100.00
18813;BME280;9534;51.140;6.296;2023-02-12T05:46:44;102879.97;;;6.82;100.00
18813;BME280;9534;51.140;6.296;2023-02-12T05:50:48;102875.53;;;6.81;100.00
18813;BME280;9534;51.140;6.296;2023-02-12T05:54:53;102882.09;;;6.79;100.00
18813;BME280;9534;51.140;6.296;2023-02-12T05:58:58;102880.72;;;6.84;100.00
18813;BME280;9534;51.140;6.296;2023-02-12T06:03:03;102883.22;;;6.76;100.00
18813;BME280;9534;51.140;6.296;2023-02-12T06:07:07;102887.72;;;6.66;100.00
18813;BME280;9534;51.140;6.296;2023-02-12T06:11:12;102881.41;;;6.66;100.00
18813;BME280;9534;51.140;6.296;2023-02-12T06:15:15;102882.53;;;6.63;100.00
18813;BME280;9534;51.140;6.296;2023-02-12T06:19:19;102889.19;;;6.70;100.00
18813;BME280;9534;51.140;6.296;2023-02-12T06:23:24;102878.06;;;6.73;100.00
18813;BME280;9534;51.140;6.296;2023-02-12T06:27:27;102890.13;;;6.80;100.00
18813;BME280;9534;51.140;6.296;2023-02-12T06:31:31;102894.13;;;6.76;100.00
18813;BME280;9534;51.140;6.296;2023-02-12T06:35:35;102891.88;;;6.81;100.00
18813;BME280;9534;51.140;6.296;2023-02-12T06:39:40;102890.13;;;6.80;100.00
18813;BME280;9534;51.140;6.296;2023-02-12T06:43:43;102888.16;;;6.82;100.00
18813;BME280;9534;51.140;6.296;2023-02-12T06:47:46;102891.88;;;6.81;100.00
18813;BME280;9534;51.140;6.296;2023-02-12T06:51:49;102897.50;;;6.89;100.00
18813;BME280;9534;51.140;6.296;2023-02-12T06:55:54;102900.50;;;6.86;100.00
18813;BME280;9534;51.140;6.296;2023-02-12T06:59:57;102899.88;;;6.83;100.00
18813;BME280;9534;51.140;6.296;2023-02-12T07:04:01;102907.25;;;6.71;100.00
18813;BME280;9534;51.140;6.296;2023-02-12T07:08:04;102907.94;;;6.84;100.00
18813;BME280;9534;51.140;6.296;2023-02-12T07:12:09;102910.81;;;6.72;100.00
18813;BME280;9534;51.140;6.296;2023-02-12T07:16:14;102922.28;;;6.86;100.00
18813;BME280;9534;51.140;6.296;2023-02-12T07:20:17;102926.44;;;6.90;100.00
18813;BME280;9534;51.140;6.296;2023-02-12T07:24:20;102927.97;;;6.83;100.00
18813;BME280;9534;51.140;6.296;2023-02-12T07:28:25;102929.69;;;6.84;100.00
18813;BME280;9534;51.140;6.296;2023-02-12T07:32:30;102931.56;;;7.04;100.00
18813;BME280;9534;51.140;6.296;2023-02-12T07:36:33;102929.50;;;7.17;100.00
18813;BME280;9534;51.140;6.296;2023-02-12T07:40:36;102926.38;;;7.01;100.00
18813;BME280;9534;51.140;6.296;2023-02-12T07:44:41;102934.88;;;7.28;100.00
18813;BME280;9534;51.140;6.296;2023-02-12T07:48:45;102927.19;;;7.33;100.00
18813;BME280;9534;51.140;6.296;2023-02-12T07:52:48;102915.41;;;7.32;100.00
18813;BME280;9534;51.140;6.296;2023-02-12T07:56:52;102913.09;;;7.28;100.00
18813;BME280;9534;51.140;6.296;2023-02-12T08:00:57;102918.09;;;7.23;100.00
18813;BME280;9534;51.140;6.296;2023-02-12T08:05:00;102924.91;;;7.38;100.00
18813;BME280;9534;51.140;6.296;2023-02-12T08:09:05;102922.19;;;7.38;100.00
18813;BME280;9534;51.140;6.296;2023-02-12T08:13:08;102925.56;;;7.51;100.00
18813;BME280;9534;51.140;6.296;2023-02-12T08:17:13;102923.56;;;7.53;100.00
18813;BME280;9534;51.140;6.296;2023-02-12T08:21:18;102929.94;;;7.63;100.00
18813;BME280;9534;51.140;6.296;2023-02-12T08:25:21;102915.38;;;7.83;100.00
18813;BME280;9534;51.140;6.296;2023-02-12T08:29:27;102923.72;;;7.81;100.00
18813;BME280;9534;51.140;6.296;2023-02-12T08:33:31;102924.00;;;7.88;100.00
18813;BME280;9534;51.140;6.296;2023-02-12T08:37:34;102925.25;;;8.14;100.00
18813;BME280;9534;51.140;6.296;2023-02-12T08:41:38;102923.69;;;8.21;100.00
18813;BME280;9534;51.140;6.296;2023-02-12T08:45:42;102937.31;;;8.51;100.00
18813;BME280;9534;51.140;6.296;2023-02-12T08:49:47;102935.25;;;8.34;100.00
18813;BME280;9534;51.140;6.296;2023-02-12T08:53:51;102925.50;;;8.41;100.00
18813;BME280;9534;51.140;6.296;2023-02-12T08:57:55;102928.69;;;8.46;100.00
18813;BME280;9534;51.140;6.296;2023-02-12T09:01:59;102924.25;;;8.73;100.00
18813;BME280;9534;51.140;6.296;2023-02-12T09:06:06;102916.34;;;8.79;100.00
18813;BME280;9534;51.140;6.296;2023-02-12T09:10:10;102910.44;;;8.74;100.00
18813;BME280;9534;51.140;6.296;2023-02-12T09:14:14;102910.16;;;8.77;100.00
18813;BME280;9534;51.140;6.296;2023-02-12T09:18:18;102914.19;;;8.92;100.00
18813;BME280;9534;51.140;6.296;2023-02-12T09:22:22;102902.72;;;8.89;100.00
18813;BME280;9534;51.140;6.296;2023-02-12T09:26:25;102904.69;;;8.96;100.00
18813;BME280;9534;51.140;6.296;2023-02-12T09:30:28;102901.38;;;9.02;100.00
18813;BME280;9534;51.140;6.296;2023-02-12T09:34:33;102906.25;;;9.18;100.00
18813;BME280;9534;51.140;6.296;2023-02-12T09:38:38;102900.34;;;9.13;100.00
18813;BME280;9534;51.140;6.296;2023-02-12T09:42:52;102894.00;;;9.31;100.00
18813;BME280;9534;51.140;6.296;2023-02-12T09:47:00;102896.59;;;9.33;100.00
18813;BME280;9534;51.140;6.296;2023-02-12T09:51:06;102895.16;;;9.29;100.00
18813;BME280;9534;51.140;6.296;2023-02-12T09:55:13;102889.59;;;9.57;100.00
18813;BME280;9534;51.140;6.296;2023-02-12T09:59:32;102881.53;;;9.92;100.00
18813;BME280;9534;51.140;6.296;2023-02-12T10:03:37;102886.03;;;9.47;100.00
18813;BME280;9534;51.140;6.296;2023-02-12T10:07:58;102888.34;;;9.52;100.00
18813;BME280;9534;51.140;6.296;2023-02-12T10:12:07;102895.66;;;9.51;100.00
18813;BME280;9534;51.140;6.296;2023-02-12T10:16:20;102906.75;;;9.50;100.00
18813;BME280;9534;51.140;6.296;2023-02-12T10:20:38;102905.41;;;9.63;100.00
18813;BME280;9534;51.140;6.296;2023-02-12T10:24:51;102893.72;;;9.97;100.00
18813;BME280;9534;51.140;6.296;2023-02-12T10:29:10;102886.84;;;9.93;100.00
18813;BME280;9534;51.140;6.296;2023-02-12T10:33:17;102893.13;;;10.13;100.00
18813;BME280;9534;51.140;6.296;2023-02-12T10:37:27;102903.09;;;9.68;100.00
18813;BME280;9534;51.140;6.296;2023-02-12T10:41:38;102891.22;;;9.86;100.00
18813;BME280;9534;51.140;6.296;2023-02-12T10:45:44;102894.16;;;10.12;100.00
18813;BME280;9534;51.140;6.296;2023-02-12T10:49:52;102880.31;;;9.77;100.00
18813;BME280;9534;51.140;6.296;2023-02-12T10:54:32;102886.09;;;9.74;100.00
18813;BME280;9534;51.140;6.296;2023-02-12T10:58:35;102887.50;;;9.78;100.00
18813;BME280;9534;51.140;6.296;2023-02-12T11:02:38;102880.63;;;9.74;100.00
18813;BME280;9534;51.140;6.296;2023-02-12T11:06:55;102888.75;;;9.93;100.00
18813;BME280;9534;51.140;6.296;2023-02-12T11:11:06;102890.88;;;9.99;100.00
18813;BME280;9534;51.140;6.296;2023-02-12T11:15:13;102884.19;;;9.48;100.00
18813;BME280;9534;51.140;6.296;2023-02-12T11:19:20;102884.78;;;9.78;100.00
18813;BME280;9534;51.140;6.296;2023-02-12T11:23:26;102886.78;;;9.76;100.00
18813;BME280;9534;51.140;6.296;2023-02-12T11:27:30;102880.88;;;9.81;100.00
18813;BME280;9534;51.140;6.296;2023-02-12T11:31:34;102887.38;;;9.80;100.00
18813;BME280;9534;51.140;6.296;2023-02-12T11:35:47;102876.28;;;9.81;100.00
18813;BME280;9534;51.140;6.296;2023-02-12T11:39:51;102870.03;;;10.25;100.00
18813;BME280;9534;51.140;6.296;2023-02-12T11:43:55;102864.38;;;10.26;100.00
18813;BME280;9534;51.140;6.296;2023-02-12T11:47:59;102863.63;;;10.07;100.00
18813;BME280;9534;51.140;6.296;2023-02-12T11:52:03;102861.00;;;10.05;100.00
18813;BME280;9534;51.140;6.296;2023-02-12T11:56:09;102853.81;;;10.31;100.00
18813;BME280;9534;51.140;6.296;2023-02-12T12:00:16;102854.28;;;10.00;100.00
18813;BME280;9534;51.140;6.296;2023-02-12T12:04:26;102853.13;;;10.47;100.00
18813;BME280;9534;51.140;6.296;2023-02-12T12:08:37;102838.34;;;10.40;100.00
18813;BME280;9534;51.140;6.296;2023-02-12T12:12:46;102841.94;;;9.96;100.00
18813;BME280;9534;51.140;6.296;2023-02-12T12:16:55;102841.94;;;10.58;100.00
18813;BME280;9534;51.140;6.296;2023-02-12T12:21:24;102821.78;;;10.24;100.00
18813;BME280;9534;51.140;6.296;2023-02-12T12:25:34;102828.66;;;10.01;100.00
18813;BME280;9534;51.140;6.296;2023-02-12T12:29:47;102810.41;;;10.54;100.00
18813;BME280;9534;51.140;6.296;2023-02-12T12:34:01;102808.84;;;10.69;100.00
18813;BME280;9534;51.140;6.296;2023-02-12T12:38:15;102785.56;;;10.90;100.00
18813;BME280;9534;51.140;6.296;2023-02-12T12:46:57;102781.72;;;10.40;100.00
18813;BME280;9534;51.140;6.296;2023-02-12T12:51:22;102778.09;;;10.75;100.00
18813;BME280;9534;51.140;6.296;2023-02-12T12:55:43;102767.69;;;10.61;100.00
18813;BME280;9534;51.140;6.296;2023-02-12T12:59:59;102768.88;;;10.41;100.00
18813;BME280;9534;51.140;6.296;2023-02-12T13:09:06;102761.00;;;10.81;100.00
18813;BME280;9534;51.140;6.296;2023-02-12T13:13:21;102750.31;;;10.70;100.00
18813;BME280;9534;51.140;6.296;2023-02-12T13:17:31;102742.28;;;10.68;100.00
18813;BME280;9534;51.140;6.296;2023-02-12T13:21:42;102741.72;;;10.22;100.00
18813;BME280;9534;51.140;6.296;2023-02-12T13:25:57;102740.63;;;10.58;100.00
18813;BME280;9534;51.140;6.296;2023-02-12T13:30:08;102732.03;;;10.53;100.00
18813;BME280;9534;51.140;6.296;2023-02-12T13:34:19;102744.44;;;10.65;100.00
18813;BME280;9534;51.140;6.296;2023-02-12T13:38:26;102739.69;;;10.67;100.00
18813;BME280;9534;51.140;6.296;2023-02-12T13:42:42;102734.06;;;10.51;100.00
18813;BME280;9534;51.140;6.296;2023-02-12T13:46:53;102749.28;;;10.28;100.00
18813;BME280;9534;51.140;6.296;2023-02-12T13:51:03;102744.75;;;10.19;100.00
18813;BME280;9534;51.140;6.296;2023-02-12T13:55:20;102733.31;;;10.41;100.00
18813;BME280;9534;51.140;6.296;2023-02-12T13:59:41;102725.78;;;10.43;100.00
18813;BME280;9534;51.140;6.296;2023-02-12T14:03:44;102728.38;;;10.44;100.00
18813;BME280;9534;51.140;6.296;2023-02-12T14:07:49;102724.31;;;10.48;100.00
18813;BME280;9534;51.140;6.296;2023-02-12T14:11:53;102735.88;;;10.07;100.00
18813;BME280;9534;51.140;6.296;2023-02-12T14:15:57;102746.81;;;10.07;100.00
18813;BME280;9534;51.140;6.296;2023-02-12T14:20:07;102746.22;;;10.13;100.00
18813;BME280;9534;51.140;6.296;2023-02-12T14:24:48;102744.16;;;9.98;100.00
18813;BME280;9534;51.140;6.296;2023-02-12T14:28:53;102749.72;;;10.06;100.00
18813;BME280;9534;51.140;6.296;2023-02-12T14:33:22;102746.91;;;10.33;100.00
18813;BME280;9534;51.140;6.296;2023-02-12T14:37:34;102742.09;;;10.27;100.00
18813;BME280;9534;51.140;6.296;2023-02-12T14:41:39;102743.34;;;10.15;100.00
18813;BME280;9534;51.140;6.296;2023-02-12T14:45:45;102742.53;;;10.05;100.00
18813;BME280;9534;51.140;6.296;2023-02-12T14:49:51;102748.91;;;10.23;100.00
18813;BME280;9534;51.140;6.296;2023-02-12T14:53:58;102748.31;;;10.37;100.00
18813;BME280;9534;51.140;6.296;2023-02-12T14:58:04;102735.75;;;10.26;100.00
18813;BME280;9534;51.140;6.296;2023-02-12T15:02:13;102732.78;;;10.37;100.00
18813;BME280;9534;51.140;6.296;2023-02-12T15:06:21;102727.41;;;10.28;100.00
18813;BME280;9534;51.140;6.296;2023-02-12T15:10:30;102732.91;;;10.01;100.00
18813;BME280;9534;51.140;6.296;2023-02-12T15:14:34;102733.06;;;9.82;100.00
18813;BME280;9534;51.140;6.296;2023-02-12T15:18:49;102741.81;;;9.85;100.00
18813;BME280;9534;51.140;6.296;2023-02-12T15:22:54;102742.84;;;9.84;100.00
18813;BME280;9534;51.140;6.296;2023-02-12T15:26:58;102738.13;;;9.94;100.00
18813;BME280;9534;51.140;6.296;2023-02-12T15:31:04;102744.38;;;9.87;100.00
18813;BME280;9534;51.140;6.296;2023-02-12T15:35:20;102738.44;;;9.91;100.00
18813;BME280;9534;51.140;6.296;2023-02-12T15:39:30;102737.00;;;9.70;100.00
18813;BME280;9534;51.140;6.296;2023-02-12T15:43:40;102734.59;;;9.67;100.00
18813;BME280;9534;51.140;6.296;2023-02-12T15:47:44;102733.13;;;9.73;100.00
18813;BME280;9534;51.140;6.296;2023-02-12T15:51:48;102728.09;;;9.68;100.00
18813;BME280;9534;51.140;6.296;2023-02-12T15:55:52;102730.41;;;9.73;100.00
18813;BME280;9534;51.140;6.296;2023-02-12T16:00:02;102725.56;;;9.57;100.00
18813;BME280;9534;51.140;6.296;2023-02-12T16:04:13;102723.84;;;9.56;100.00
18813;BME280;9534;51.140;6.296;2023-02-12T16:08:22;102722.09;;;9.65;100.00
18813;BME280;9534;51.140;6.296;2023-02-12T16:12:29;102707.75;;;9.53;100.00
18813;BME280;9534;51.140;6.296;2023-02-12T16:16:42;102722.13;;;9.55;100.00
18813;BME280;9534;51.140;6.296;2023-02-12T16:20:46;102720.72;;;9.51;100.00
18813;BME280;9534;51.140;6.296;2023-02-12T16:24:52;102722.69;;;9.41;100.00
18813;BME280;9534;51.140;6.296;2023-02-12T16:28:58;102712.19;;;9.37;100.00
18813;BME280;9534;51.140;6.296;2023-02-12T16:33:01;102721.97;;;9.39;100.00
18813;BME280;9534;51.140;6.296;2023-02-12T16:37:46;102728.44;;;9.38;100.00
18813;BME280;9534;51.140;6.296;2023-02-12T16:41:52;102722.91;;;9.21;100.00
18813;BME280;9534;51.140;6.296;2023-02-12T16:46:03;102722.06;;;9.20;100.00
18813;BME280;9534;51.140;6.296;2023-02-12T16:50:14;102724.38;;;9.15;100.00
18813;BME280;9534;51.140;6.296;2023-02-12T16:54:26;102725.28;;;9.06;100.00
18813;BME280;9534;51.140;6.296;2023-02-12T16:58:29;102726.69;;;9.10;100.00
18813;BME280;9534;51.140;6.296;2023-02-12T17:02:34;102729.91;;;8.96;100.00
18813;BME280;9534;51.140;6.296;2023-02-12T17:06:38;102727.59;;;9.01;100.00
18813;BME280;9534;51.140;6.296;2023-02-12T17:10:41;102726.88;;;8.99;100.00
18813;BME280;9534;51.140;6.296;2023-02-12T17:14:45;102721.59;;;8.98;100.00
18813;BME280;9534;51.140;6.296;2023-02-12T17:18:50;102730.94;;;8.95;100.00
18813;BME280;9534;51.140;6.296;2023-02-12T17:22:54;102731.09;;;8.94;100.00
18813;BME280;9534;51.140;6.296;2023-02-12T17:26:57;102727.22;;;8.87;100.00
18813;BME280;9534;51.140;6.296;2023-02-12T17:31:01;102729.38;;;8.83;100.00
18813;BME280;9534;51.140;6.296;2023-02-12T17:35:08;102742.16;;;8.92;100.00
18813;BME280;9534;51.140;6.296;2023-02-12T17:39:13;102735.25;;;8.88;100.00
18813;BME280;9534;51.140;6.296;2023-02-12T17:43:16;102732.28;;;8.82;100.00
18813;BME280;9534;51.140;6.296;2023-02-12T17:47:19;102730.69;;;8.79;100.00
18813;BME280;9534;51.140;6.296;2023-02-12T17:51:24;102727.13;;;8.69;100.00
18813;BME280;9534;51.140;6.296;2023-02-12T17:55:27;102737.31;;;8.67;100.00
18813;BME280;9534;51.140;6.296;2023-02-12T17:59:30;102744.91;;;8.73;100.00
18813;BME280;9534;51.140;6.296;2023-02-12T18:03:33;102739.63;;;8.62;100.00
18813;BME280;9534;51.140;6.296;2023-02-12T18:07:38;102746.41;;;8.59;100.00
18813;BME280;9534;51.140;6.296;2023-02-12T18:11:43;102741.38;;;8.54;100.00
18813;BME280;9534;51.140;6.296;2023-02-12T18:15:47;102742.25;;;8.55;100.00
18813;BME280;9534;51.140;6.296;2023-02-12T18:19:50;102745.88;;;8.46;100.00
18813;BME280;9534;51.140;6.296;2023-02-12T18:23:54;102740.41;;;8.36;100.00
18813;BME280;9534;51.140;6.296;2023-02-12T18:27:57;102747.31;;;8.31;100.00
18813;BME280;9534;51.140;6.296;2023-02-12T18:32:02;102744.41;;;8.23;100.00
18813;BME280;9534;51.140;6.296;2023-02-12T18:36:07;102746.41;;;8.11;100.00
18813;BME280;9534;51.140;6.296;2023-02-12T18:40:12;102750.13;;;8.01;100.00
18813;BME280;9534;51.140;6.296;2023-02-12T18:44:15;102746.69;;;7.99;100.00
18813;BME280;9534;51.140;6.296;2023-02-12T18:48:18;102754.72;;;7.91;100.00
18813;BME280;9534;51.140;6.296;2023-02-12T18:52:21;102753.25;;;7.87;100.00
18813;BME280;9534;51.140;6.296;2023-02-12T18:56:26;102752.69;;;7.74;100.00
18813;BME280;9534;51.140;6.296;2023-02-12T19:00:29;102758.66;;;7.58;100.00
18813;BME280;9534;51.140;6.296;2023-02-12T19:04:33;102760.94;;;7.53;100.00
18813;BME280;9534;51.140;6.296;2023-02-12T19:08:36;102754.94;;;7.50;100.00
18813;BME280;9534;51.140;6.296;2023-02-12T19:12:40;102751.22;;;7.51;100.00
18813;BME280;9534;51.140;6.296;2023-02-12T19:16:44;102750.03;;;7.44;100.00
18813;BME280;9534;51.140;6.296;2023-02-12T19:20:47;102755.34;;;7.45;100.00
18813;BME280;9534;51.140;6.296;2023-02-12T19:24:50;102749.16;;;7.34;100.00
18813;BME280;9534;51.140;6.296;2023-02-12T19:28:55;102744.84;;;7.32;100.00
18813;BME280;9534;51.140;6.296;2023-02-12T19:32:58;102747.41;;;7.24;100.00
18813;BME280;9534;51.140;6.296;2023-02-12T19:37:01;102748.53;;;7.21;100.00
18813;BME280;9534;51.140;6.296;2023-02-12T19:41:07;102738.44;;;7.12;100.00
18813;BME280;9534;51.140;6.296;2023-02-12T19:45:11;102733.72;;;7.14;100.00
18813;BME280;9534;51.140;6.296;2023-02-12T19:49:16;102726.66;;;7.02;100.00
18813;BME280;9534;51.140;6.296;2023-02-12T19:53:20;102737.22;;;6.96;100.00
18813;BME280;9534;51.140;6.296;2023-02-12T19:57:23;102736.34;;;6.95;100.00
18813;BME280;9534;51.140;6.296;2023-02-12T20:01:27;102728.03;;;6.87;100.00
18813;BME280;9534;51.140;6.296;2023-02-12T20:05:31;102745.19;;;6.78;100.00
18813;BME280;9534;51.140;6.296;2023-02-12T20:09:34;102741.25;;;6.71;100.00
18813;BME280;9534;51.140;6.296;2023-02-12T20:13:37;102737.88;;;6.58;100.00
18813;BME280;9534;51.140;6.296;2023-02-12T20:17:42;102738.69;;;6.49;100.00
18813;BME280;9534;51.140;6.296;2023-02-12T20:21:45;102738.63;;;6.40;100.00
18813;BME280;9534;51.140;6.296;2023-02-12T20:25:49;102741.72;;;6.35;100.00
18813;BME280;9534;51.140;6.296;2023-02-12T20:29:52;102735.72;;;6.32;100.00
18813;BME280;9534;51.140;6.296;2023-02-12T20:33:59;102742.25;;;6.29;100.00
18813;BME280;9534;51.140;6.296;2023-02-12T20:38:03;102754.59;;;6.33;100.00
18813;BME280;9534;51.140;6.296;2023-02-12T20:42:06;102743.94;;;6.41;100.00
18813;BME280;9534;51.140;6.296;2023-02-12T20:46:10;102747.13;;;6.46;100.00
18813;BME280;9534;51.140;6.296;2023-02-12T20:50:15;102750.75;;;6.56;100.00
18813;BME280;9534;51.140;6.296;2023-02-12T20:54:18;102753.41;;;6.67;100.00
18813;BME280;9534;51.140;6.296;2023-02-12T20:58:22;102749.97;;;6.65;100.00
18813;BME280;9534;51.140;6.296;2023-02-12T21:02:25;102752.72;;;6.75;100.00
18813;BME280;9534;51.140;6.296;2023-02-12T21:06:29;102743.72;;;6.74;100.00
18813;BME280;9534;51.140;6.296;2023-02-12T21:10:32;102750.34;;;6.81;100.00
18813;BME280;9534;51.140;6.296;2023-02-12T21:14:36;102745.38;;;6.86;100.00
18813;BME280;9534;51.140;6.296;2023-02-12T21:18:39;102741.50;;;6.89;100.00
18813;BME280;9534;51.140;6.296;2023-02-12T21:22:43;102746.09;;;6.88;100.00
18813;BME280;9534;51.140;6.296;2023-02-12T21:26:47;102745.78;;;6.91;100.00
18813;BME280;9534;51.140;6.296;2023-02-12T21:30:50;102740.47;;;6.80;100.00
18813;BME280;9534;51.140;6.296;2023-02-12T21:34:53;102740.19;;;6.83;100.00
18813;BME280;9534;51.140;6.296;2023-02-12T21:38:58;102740.91;;;6.85;100.00
18813;BME280;9534;51.140;6.296;2023-02-12T21:43:01;102731.75;;;6.86;100.00
18813;BME280;9534;51.140;6.296;2023-02-12T21:47:04;102741.06;;;6.93;100.00
18813;BME280;9534;51.140;6.296;2023-02-12T21:51:16;102738.94;;;6.87;100.00